createdAt,value
2024-02-19T06:37:29.294Z,100916.69
2024-02-19T06:38:34.618Z,100911.44
2024-02-19T06:39:42.132Z,100908.09
2024-02-19T06:40:48.867Z,100902.28
2024-02-19T06:41:54.091Z,100907.81
2024-02-19T06:43:00.805Z,100901.47
2024-02-19T06:44:06.096Z,100895.13
2024-02-19T06:45:13.636Z,100897.91
2024-02-19T06:46:19.144Z,100899.00
2024-02-19T06:47:25.775Z,100894.91
2024-02-19T06:48:31.051Z,100895.72
2024-02-19T06:49:37.611Z,100889.09
2024-02-19T06:50:43.043Z,100884.69
2024-02-19T06:51:49.561Z,100881.94
2024-02-19T06:52:56.507Z,100880.25
2024-02-19T06:54:03.115Z,100878.06
2024-02-19T06:55:09.045Z,100877.47
2024-02-19T06:56:16.317Z,100881.88
2024-02-19T06:57:21.534Z,100884.06
2024-02-19T06:58:28.183Z,100874.69
2024-02-19T06:59:33.618Z,100873.88
2024-02-19T07:00:40.312Z,100873.56
2024-02-19T07:01:45.610Z,100873.56
2024-02-19T07:02:52.184Z,100872.50
2024-02-19T07:03:57.414Z,100878.84
2024-02-19T07:05:04.510Z,100868.34
2024-02-19T07:06:10.303Z,100866.09
2024-02-19T07:07:17.200Z,100859.75
2024-02-19T07:08:24.161Z,100857.00
2024-02-19T07:09:30.706Z,100853.72
2024-02-19T07:10:36.069Z,100852.06
2024-02-19T07:11:42.861Z,100841.84
2024-02-19T07:12:48.184Z,100848.50
2024-02-19T07:13:57.970Z,100838.81
2024-02-19T07:15:03.192Z,100829.44
2024-02-19T07:16:10.268Z,100838.53
2024-02-19T07:17:15.552Z,100841.56
2024-02-19T07:18:22.118Z,100829.97
2024-02-19T07:19:27.578Z,100823.34
2024-02-19T07:20:34.253Z,100824.44
2024-02-19T07:21:39.837Z,100822.53
2024-02-19T07:22:46.367Z,100815.63
2024-02-19T07:23:53.259Z,100822.53
2024-02-19T07:25:09.985Z,100817.31
2024-02-19T07:26:22.312Z,100816.47
2024-02-19T07:27:29.414Z,100821.16
2024-02-19T07:28:34.677Z,100813.16
2024-02-19T07:29:41.359Z,100813.47
2024-02-19T07:30:46.631Z,100819.81
2024-02-19T07:31:53.816Z,100807.94
2024-02-19T07:32:59.153Z,100822.56
2024-02-19T07:34:05.962Z,100805.72
2024-02-19T07:35:11.624Z,100810.69
2024-02-19T07:36:18.376Z,100804.34
2024-02-19T07:37:23.931Z,100808.75
2024-02-19T07:38:30.625Z,100805.97
2024-02-19T07:39:37.613Z,100808.19
2024-02-19T07:40:44.449Z,100802.41
2024-02-19T07:41:49.834Z,100808.44
2024-02-19T07:42:56.538Z,100798.22
2024-02-19T07:44:01.882Z,100789.97
2024-02-19T07:45:09.030Z,100801.53
2024-02-19T07:46:14.663Z,100789.91
2024-02-19T07:47:21.379Z,100793.50
2024-02-19T07:48:26.949Z,100791.28
2024-02-19T07:49:33.962Z,100785.75
2024-02-19T07:50:39.469Z,100780.81
2024-02-19T07:51:46.329Z,100788.56
2024-02-19T07:52:51.796Z,100782.50
2024-02-19T07:53:58.425Z,100778.66
2024-02-19T07:55:05.942Z,100779.22
2024-02-19T07:56:12.734Z,100783.34
2024-02-19T07:57:18.117Z,100780.59
2024-02-19T07:58:24.802Z,100775.66
2024-02-19T07:59:30.224Z,100780.66
2024-02-19T08:00:37.443Z,100776.00
2024-02-19T08:01:42.903Z,100781.81
2024-02-19T08:02:49.537Z,100786.47
2024-02-19T08:03:54.989Z,100780.94
2024-02-19T08:05:02.080Z,100779.56
2024-02-19T08:06:09.862Z,100781.22
2024-02-19T08:07:16.599Z,100784.25
2024-02-19T08:08:22.067Z,100779.84
2024-02-19T08:09:28.680Z,100777.38
2024-02-19T08:10:35.912Z,100772.66
2024-02-19T08:11:42.712Z,100771.59
2024-02-19T08:12:48.263Z,100771.03
2024-02-19T08:13:55.417Z,100775.44
2024-02-19T08:15:00.978Z,100773.78
2024-02-19T08:16:08.261Z,100761.94
2024-02-19T08:17:13.613Z,100767.16
2024-02-19T08:18:20.344Z,100763.56
2024-02-19T08:19:25.807Z,100763.56
2024-02-19T08:20:32.567Z,100761.41
2024-02-19T08:21:37.971Z,100758.38
2024-02-19T08:22:46.918Z,100757.84
2024-02-19T08:23:52.666Z,100763.66
2024-02-19T08:24:59.458Z,100755.13
2024-02-19T08:26:06.762Z,100755.94
2024-02-19T08:27:13.527Z,100753.72
2024-02-19T08:28:18.982Z,100752.88
2024-02-19T08:29:25.610Z,100757.59
2024-02-19T08:30:30.968Z,100749.59
2024-02-19T08:31:37.624Z,100745.75
2024-02-19T08:32:44.466Z,100747.69
2024-02-19T08:33:51.550Z,100743.59
2024-02-19T08:34:57.049Z,100749.38
2024-02-19T08:36:04.918Z,100739.75
2024-02-19T08:37:10.246Z,100746.94
2024-02-19T08:38:17.619Z,100744.75
2024-02-19T08:39:23.106Z,100743.63
2024-02-19T08:40:29.796Z,100746.41
2024-02-19T08:41:36.701Z,100737.31
2024-02-19T08:42:43.262Z,100740.34
2024-02-19T08:43:48.608Z,100737.03
2024-02-19T08:44:55.136Z,100742.00
2024-02-19T08:46:00.476Z,100738.13
2024-02-19T08:47:10.455Z,100740.88
2024-02-19T08:48:15.907Z,100751.63
2024-02-19T08:49:22.605Z,100741.41
2024-02-19T08:50:27.896Z,100741.69
2024-02-19T08:51:34.488Z,100743.03
2024-02-19T08:52:39.755Z,100743.59
2024-02-19T08:53:49.276Z,100744.72
2024-02-19T08:54:58.826Z,100744.16
2024-02-19T08:56:05.513Z,100735.63
2024-02-19T08:57:12.401Z,100739.78
2024-02-19T08:58:19.009Z,100743.06
2024-02-19T08:59:24.174Z,100741.41
2024-02-19T09:00:32.904Z,100742.22
2024-02-19T09:01:39.562Z,100741.16
2024-02-19T09:02:46.260Z,100743.31
2024-02-19T09:03:51.860Z,100740.00
2024-02-19T09:04:58.584Z,100738.91
2024-02-19T09:06:03.833Z,100750.75
2024-02-19T09:07:10.572Z,100750.75
2024-02-19T09:08:15.880Z,100746.34
2024-02-19T09:09:22.498Z,100760.41
2024-02-19T09:10:27.718Z,100748.84
2024-02-19T09:11:34.342Z,100748.00
2024-02-19T09:12:41.420Z,100755.72
2024-02-19T09:13:48.000Z,100749.34
2024-02-19T09:14:53.265Z,100750.44
2024-02-19T09:15:58.522Z,100744.91
2024-02-19T09:17:05.500Z,100752.66
2024-02-19T09:18:10.871Z,100745.75
2024-02-19T09:19:19.076Z,100743.03
2024-02-19T09:20:24.425Z,100745.78
2024-02-19T09:21:31.068Z,100755.19
2024-02-19T09:22:36.337Z,100754.13
2024-02-19T09:23:42.880Z,100747.00
2024-02-19T09:24:50.304Z,100753.66
2024-02-19T09:25:56.891Z,100756.44
2024-02-19T09:27:02.155Z,100755.66
2024-02-19T09:28:11.106Z,100750.97
2024-02-19T09:29:17.620Z,100751.81
2024-02-19T09:30:24.833Z,100756.19
2024-02-19T09:31:30.099Z,100762.56
2024-02-19T09:32:36.747Z,100753.72
2024-02-19T09:33:42.169Z,100752.09
2024-02-19T09:34:49.007Z,100755.38
2024-02-19T09:35:54.368Z,100753.72
2024-02-19T09:37:02.511Z,100760.88
2024-02-19T09:38:08.244Z,100758.94
2024-02-19T09:39:14.898Z,100761.66
2024-02-19T09:40:20.942Z,100763.06
2024-02-19T09:41:27.864Z,100755.88
2024-02-19T09:42:33.420Z,100755.34
2024-02-19T09:43:41.904Z,100760.84
2024-02-19T09:44:47.432Z,100764.19
2024-02-19T09:45:52.765Z,100763.94
2024-02-19T09:47:01.256Z,100768.09
2024-02-19T09:48:08.337Z,100772.50
2024-02-19T09:49:16.424Z,100777.97
2024-02-19T09:50:21.974Z,100778.00
2024-02-19T09:51:36.584Z,100785.16
2024-02-19T09:52:48.098Z,100776.94
2024-02-19T09:53:55.468Z,100782.44
2024-02-19T09:55:00.876Z,100784.09
2024-02-19T09:56:09.631Z,100783.25
2024-02-19T09:57:15.319Z,100782.16
2024-02-19T09:58:22.070Z,100781.63
2024-02-19T09:59:31.421Z,100779.13
2024-02-19T10:00:38.270Z,100780.22
2024-02-19T10:01:46.776Z,100777.47
2024-02-19T10:02:56.021Z,100776.94
2024-02-19T10:04:01.475Z,100780.22
2024-02-19T10:05:10.227Z,100777.19
2024-02-19T10:06:15.921Z,100775.81
2024-02-19T10:07:23.338Z,100775.81
2024-02-19T10:08:28.818Z,100777.47
2024-02-19T10:09:34.213Z,100772.78
2024-02-19T10:10:43.017Z,100774.19
2024-02-19T10:11:49.818Z,100775.25
2024-02-19T10:12:56.765Z,100781.84
2024-02-19T10:14:02.180Z,100788.19
2024-02-19T10:15:11.302Z,100788.72
2024-02-19T10:16:16.885Z,100783.50
2024-02-19T10:17:26.733Z,100786.00
2024-02-19T10:18:32.283Z,100790.13
2024-02-19T10:19:40.406Z,100781.34
2024-02-19T10:20:48.441Z,100784.91
2024-02-19T10:21:55.215Z,100788.25
2024-02-19T10:23:00.678Z,100784.38
2024-02-19T10:24:07.631Z,100787.13
2024-02-19T10:25:14.888Z,100786.59
2024-02-19T10:26:21.581Z,100791.53
2024-02-19T10:27:26.946Z,100789.06
2024-02-19T10:28:34.376Z,100785.44
2024-02-19T10:29:39.651Z,100802.53
2024-02-19T10:30:48.052Z,100795.09
2024-02-19T10:31:53.385Z,100798.38
2024-02-19T10:33:00.127Z,100796.72
2024-02-19T10:34:05.852Z,100804.44
2024-02-19T10:35:12.830Z,100797.53
2024-02-19T10:36:21.189Z,100801.69
2024-02-19T10:37:28.174Z,100806.34
2024-02-19T10:38:33.514Z,100813.75
2024-02-19T10:39:40.253Z,100812.38
2024-02-19T10:40:45.621Z,100808.53
2024-02-19T10:41:52.495Z,100806.06
2024-02-19T10:42:58.635Z,100806.59
2024-02-19T10:44:05.933Z,100813.72
2024-02-19T10:45:12.560Z,100812.59
2024-02-19T10:46:22.672Z,100808.44
2024-02-19T10:47:28.575Z,100811.72
2024-02-19T10:48:35.373Z,100819.41
2024-02-19T10:49:40.884Z,100819.13
2024-02-19T10:50:47.658Z,100814.44
2024-02-19T10:51:53.932Z,100816.88
2024-02-19T10:53:01.153Z,100819.38
2024-02-19T10:54:07.149Z,100813.56
2024-02-19T10:55:17.156Z,100816.88
2024-02-19T10:56:25.218Z,100818.50
2024-02-19T10:57:34.385Z,100823.69
2024-02-19T10:58:39.762Z,100822.31
2024-02-19T10:59:46.911Z,100819.56
2024-02-19T11:00:53.655Z,100815.69
2024-02-19T11:02:12.533Z,100818.13
2024-02-19T11:03:17.999Z,100821.13
2024-02-19T11:04:26.153Z,100820.84
2024-02-19T11:05:37.115Z,100820.56
2024-02-19T11:06:44.315Z,100818.31
2024-02-19T11:07:49.722Z,100820.78
2024-02-19T11:08:58.664Z,100825.97
2024-02-19T11:10:07.212Z,100819.34
2024-02-19T11:11:14.032Z,100819.91
2024-02-19T11:12:20.802Z,100822.34
2024-02-19T11:13:29.383Z,100825.63
2024-02-19T11:14:35.212Z,100820.94
2024-02-19T11:15:45.601Z,100821.44
2024-02-19T11:16:51.116Z,100818.16
2024-02-19T11:18:00.891Z,100828.31
2024-02-19T11:19:06.575Z,100823.91
2024-02-19T11:20:12.842Z,100833.47
2024-02-19T11:21:19.553Z,100822.22
2024-02-19T11:22:32.014Z,100825.19
2024-02-19T11:23:38.720Z,100821.91
2024-02-19T11:24:44.381Z,100826.56
2024-02-19T11:25:51.302Z,100816.97
2024-02-19T11:26:56.739Z,100824.03
2024-02-19T11:28:05.011Z,100831.13
2024-02-19T11:29:13.730Z,100831.66
2024-02-19T11:30:22.509Z,100831.34
2024-02-19T11:31:28.105Z,100833.53
2024-02-19T11:32:35.154Z,100826.91
2024-02-19T11:33:42.999Z,100837.56
2024-02-19T11:34:49.853Z,100838.09
2024-02-19T11:35:59.578Z,100844.38
2024-02-19T11:37:07.985Z,100844.38
2024-02-19T11:38:13.387Z,100848.47
2024-02-19T11:39:20.318Z,100841.31
2024-02-19T11:40:30.152Z,100856.94
2024-02-19T11:41:36.844Z,100848.72
2024-02-19T11:42:42.313Z,100856.13
2024-02-19T11:43:49.061Z,100852.81
2024-02-19T11:44:54.414Z,100851.16
2024-02-19T11:46:01.218Z,100849.75
2024-02-19T11:47:06.818Z,100852.75
2024-02-19T11:48:13.980Z,100860.44
2024-02-19T11:49:22.031Z,100865.34
2024-02-19T11:50:30.377Z,100863.94
2024-02-19T11:51:38.289Z,100867.19
2024-02-19T11:52:44.925Z,100865.53
2024-02-19T11:53:52.504Z,100858.41
2024-02-19T11:54:57.910Z,100861.41
2024-02-19T11:56:04.797Z,100866.28
2024-02-19T11:57:12.520Z,100856.94
2024-02-19T11:58:19.195Z,100865.97
2024-02-19T11:59:24.654Z,100860.75
2024-02-19T12:00:33.408Z,100859.34
2024-02-19T12:01:39.622Z,100867.25
2024-02-19T12:02:51.149Z,100871.09
2024-02-19T12:03:56.507Z,100865.31
2024-02-19T12:05:05.091Z,100869.94
2024-02-19T12:06:12.183Z,100869.94
2024-02-19T12:07:18.967Z,100874.03
2024-02-19T12:08:25.291Z,100868.22
2024-02-19T12:09:31.967Z,100872.06
2024-02-19T12:10:37.434Z,100878.06
2024-02-19T12:11:45.919Z,100877.47
2024-02-19T12:12:53.278Z,100875.25
2024-02-19T12:14:00.079Z,100872.75
2024-02-19T12:15:05.975Z,100876.59
2024-02-19T12:16:13.607Z,100878.22
2024-02-19T12:17:19.111Z,100869.44
2024-02-19T12:18:25.990Z,100876.84
2024-02-19T12:19:31.642Z,100880.94
2024-02-19T12:20:40.392Z,100877.88
2024-02-19T12:21:45.835Z,100879.22
2024-02-19T12:22:52.420Z,100877.53
2024-02-19T12:23:57.955Z,100884.38
2024-02-19T12:25:04.633Z,100878.31
2024-02-19T12:26:10.034Z,100882.38
2024-02-19T12:27:16.702Z,100885.38
2024-02-19T12:28:22.001Z,100887.03
2024-02-19T12:29:28.667Z,100890.88
2024-02-19T12:30:34.015Z,100885.66
2024-02-19T12:31:40.644Z,100890.03
2024-02-19T12:32:48.557Z,100893.59
2024-02-19T12:33:55.479Z,100891.97
2024-02-19T12:35:01.144Z,100882.53
2024-02-19T12:36:11.752Z,100898.41
2024-02-19T12:37:18.109Z,100893.75
2024-02-19T12:38:26.001Z,100895.09
2024-02-19T12:39:33.060Z,100894.53
2024-02-19T12:40:40.594Z,100901.09
2024-02-19T12:41:49.559Z,100901.56
2024-02-19T12:42:56.260Z,100902.66
2024-02-19T12:44:01.610Z,100904.56
2024-02-19T12:45:09.263Z,100910.31
2024-02-19T12:46:15.338Z,100896.63
2024-02-19T12:47:22.357Z,100907.81
2024-02-19T12:48:27.803Z,100910.81
2024-02-19T12:49:37.446Z,100905.84
2024-02-19T12:50:44.567Z,100912.38
2024-02-19T12:51:54.505Z,100907.16
2024-02-19T12:53:00.057Z,100904.69
2024-02-19T12:54:07.231Z,100908.50
2024-02-19T12:55:17.752Z,100910.97
2024-02-19T12:56:26.121Z,100920.28
2024-02-19T12:57:31.442Z,100910.41
2024-02-19T12:58:38.416Z,100913.16
2024-02-19T12:59:43.830Z,100916.94
2024-02-19T13:00:50.602Z,100918.88
2024-02-19T13:01:56.149Z,100912.00
2024-02-19T13:03:02.880Z,100920.47
2024-02-19T13:04:08.867Z,100921.78
2024-02-19T13:05:15.648Z,100922.88
2024-02-19T13:06:22.083Z,100927.78
2024-02-19T13:07:30.941Z,100928.59
2024-02-19T13:08:36.430Z,100925.25
2024-02-19T13:09:44.343Z,100924.44
2024-02-19T13:10:50.382Z,100921.97
2024-02-19T13:11:57.971Z,100920.56
2024-02-19T13:13:04.590Z,100928.44
2024-02-19T13:14:12.495Z,100927.88
2024-02-19T13:15:17.912Z,100923.44
2024-02-19T13:16:24.830Z,100927.25
2024-02-19T13:17:39.344Z,100926.44
2024-02-19T13:18:50.534Z,100932.16
2024-02-19T13:19:56.049Z,100928.34
2024-02-19T13:21:02.866Z,100939.31
2024-02-19T13:22:08.456Z,100940.13
2024-02-19T13:23:16.799Z,100936.56
2024-02-19T13:24:22.183Z,100936.81
2024-02-19T13:25:28.921Z,100940.88
2024-02-19T13:26:34.287Z,100943.59
2024-02-19T13:27:41.368Z,100944.09
2024-02-19T13:28:46.692Z,100945.78
2024-02-19T13:29:53.353Z,100941.34
2024-02-19T13:30:58.712Z,100952.56
2024-02-19T13:32:05.346Z,100943.47
2024-02-19T13:33:10.925Z,100948.13
2024-02-19T13:34:18.285Z,100948.13
2024-02-19T13:35:23.947Z,100950.03
2024-02-19T13:36:31.449Z,100952.22
2024-02-19T13:37:37.337Z,100956.03
2024-02-19T13:38:48.249Z,100956.25
2024-02-19T13:39:54.342Z,100960.06
2024-02-19T13:41:05.574Z,100960.59
2024-02-19T13:42:11.892Z,100963.56
2024-02-19T13:43:19.657Z,100956.41
2024-02-19T13:44:25.902Z,100964.06
2024-02-19T13:45:37.272Z,100971.19
2024-02-19T13:46:46.793Z,100969.53
2024-02-19T13:47:54.112Z,100971.44
2024-02-19T13:49:03.469Z,100972.75
2024-02-19T13:50:11.390Z,100974.44
2024-02-19T13:51:18.536Z,100978.00
2024-02-19T13:52:26.465Z,100974.44
2024-02-19T13:53:32.462Z,100979.06
2024-02-19T13:54:41.371Z,100979.31
2024-02-19T13:55:46.951Z,100978.72
2024-02-19T13:56:57.936Z,100992.16
2024-02-19T13:58:03.811Z,100982.28
2024-02-19T13:59:12.906Z,100992.41
2024-02-19T14:00:18.660Z,100985.03
2024-02-19T14:01:40.505Z,100985.84
2024-02-19T14:02:47.726Z,100991.31
2024-02-19T14:03:55.117Z,100985.28
2024-02-19T14:05:01.194Z,100980.88
2024-02-19T14:06:09.303Z,100981.94
2024-02-19T14:07:15.216Z,100987.66
2024-02-19T14:08:23.518Z,101000.53
2024-02-19T14:09:29.338Z,100990.66
2024-02-19T14:10:38.584Z,100991.75
2024-02-19T14:11:44.340Z,100999.69
2024-02-19T14:12:52.105Z,100990.31
2024-02-19T14:14:02.109Z,100990.31
2024-02-19T14:15:10.910Z,100994.94
2024-02-19T14:16:16.331Z,100998.25
2024-02-19T14:17:23.135Z,101001.84
2024-02-19T14:18:28.520Z,101004.59
2024-02-19T14:19:35.455Z,101001.00
2024-02-19T14:20:40.976Z,101007.31
2024-02-19T14:21:47.770Z,101010.88
2024-02-19T14:22:53.425Z,101003.72
2024-02-19T14:24:00.212Z,101011.09
2024-02-19T14:25:06.813Z,101011.94
2024-02-19T14:26:15.412Z,101014.69
2024-02-19T14:27:20.901Z,101020.75
2024-02-19T14:28:27.714Z,101013.84
2024-02-19T14:29:34.606Z,101026.69
2024-02-19T14:30:41.455Z,101026.69
2024-02-19T14:31:46.834Z,101022.06
2024-02-19T14:32:53.633Z,101027.06
2024-02-19T14:33:59.055Z,101027.88
2024-02-19T14:35:05.961Z,101025.16
2024-02-19T14:36:11.853Z,101027.88
2024-02-19T14:37:21.874Z,101029.22
2024-02-19T14:38:27.728Z,101030.03
2024-02-19T14:39:34.414Z,101041.81
2024-02-19T14:40:40.187Z,101038.25
2024-02-19T14:41:48.958Z,101032.53
2024-02-19T14:42:54.460Z,101045.13
2024-02-19T14:44:01.202Z,101044.31
2024-02-19T14:45:08.597Z,101048.94
2024-02-19T14:46:15.298Z,101052.25
2024-02-19T14:47:20.759Z,101053.59
2024-02-19T14:48:27.771Z,101060.72
2024-02-19T14:49:33.617Z,101054.16
2024-02-19T14:50:48.947Z,101057.97
2024-02-19T14:51:54.630Z,101060.72
2024-02-19T14:53:01.559Z,101054.41
2024-02-19T14:54:07.140Z,101061.53
2024-02-19T14:55:14.466Z,101056.91
2024-02-19T14:56:19.974Z,101060.47
2024-02-19T14:57:28.445Z,101059.63
2024-02-19T14:58:35.396Z,101064.28
2024-02-19T14:59:44.667Z,101063.47
2024-02-19T15:00:51.721Z,101066.19
2024-02-19T15:01:58.580Z,101070.00
2024-02-19T15:03:03.971Z,101065.63
2024-02-19T15:04:14.710Z,101074.88
2024-02-19T15:05:22.746Z,101067.75
2024-02-19T15:06:30.764Z,101065.25
2024-02-19T15:07:36.597Z,101072.38
2024-02-19T15:08:46.558Z,101067.75
2024-02-19T15:09:51.979Z,101073.47
2024-02-19T15:10:58.735Z,101074.28
2024-02-19T15:12:04.142Z,101079.78
2024-02-19T15:13:12.651Z,101076.19
2024-02-19T15:14:19.722Z,101077.84
2024-02-19T15:15:26.795Z,101077.59
2024-02-19T15:16:32.303Z,101078.47
2024-02-19T15:17:39.295Z,101076.78
2024-02-19T15:18:44.917Z,101080.59
2024-02-19T15:19:51.760Z,101078.94
2024-02-19T15:20:57.151Z,101080.28
2024-02-19T15:22:04.020Z,101079.44
2024-02-19T15:23:09.415Z,101078.84
2024-02-19T15:24:16.283Z,101078.25
2024-02-19T15:25:22.075Z,101078.50
2024-02-19T15:26:28.892Z,101076.81
2024-02-19T15:27:34.668Z,101084.81
2024-02-19T15:28:43.171Z,101084.81
2024-02-19T15:29:48.512Z,101085.63
2024-02-19T15:30:55.291Z,101083.97
2024-02-19T15:32:00.758Z,101085.03
2024-02-19T15:33:07.823Z,101083.13
2024-02-19T15:34:13.407Z,101078.72
2024-02-19T15:35:20.416Z,101085.53
2024-02-19T15:36:25.882Z,101079.44
2024-02-19T15:37:32.551Z,101075.31
2024-02-19T15:38:37.886Z,101070.91
2024-02-19T15:39:44.513Z,101074.72
2024-02-19T15:40:49.845Z,101064.00
2024-02-19T15:41:56.472Z,101070.53
2024-02-19T15:43:01.845Z,101072.22
2024-02-19T15:44:10.531Z,101076.03
2024-02-19T15:45:16.296Z,101068.63
2024-02-19T15:46:22.875Z,101066.97
2024-02-19T15:47:28.243Z,101070.53
2024-02-19T15:48:35.475Z,101060.69
2024-02-19T15:49:41.028Z,101064.25
2024-02-19T15:50:47.768Z,101060.09
2024-02-19T15:51:53.442Z,101053.81
2024-02-19T15:53:05.602Z,101066.00
2024-02-19T15:54:12.525Z,101060.53
2024-02-19T15:55:19.203Z,101068.16
2024-02-19T15:56:24.571Z,101062.69
2024-02-19T15:57:31.212Z,101063.53
2024-02-19T15:58:36.894Z,101063.28
2024-02-19T15:59:45.469Z,101061.19
2024-02-19T16:00:51.252Z,101068.53
2024-02-19T16:02:00.681Z,101071.47
2024-02-19T16:03:06.628Z,101068.75
2024-02-19T16:04:13.318Z,101072.56
2024-02-19T16:05:18.918Z,101071.16
2024-02-19T16:06:30.335Z,101073.63
2024-02-19T16:07:35.689Z,101067.81
2024-02-19T16:08:43.674Z,101065.91
2024-02-19T16:09:49.028Z,101063.41
2024-02-19T16:10:55.834Z,101062.34
2024-02-19T16:12:01.282Z,101059.03
2024-02-19T16:13:07.998Z,101048.91
2024-02-19T16:14:13.417Z,101052.72
2024-02-19T16:15:21.714Z,101056.53
2024-02-19T16:16:27.089Z,101060.31
2024-02-19T16:17:33.719Z,101058.91
2024-02-19T16:18:39.525Z,101052.84
2024-02-19T16:19:46.365Z,101053.31
2024-02-19T16:20:54.905Z,101056.31
2024-02-19T16:22:01.640Z,101054.41
2024-02-19T16:23:07.301Z,101055.22
2024-02-19T16:24:14.177Z,101054.41
2024-02-19T16:25:19.557Z,101057.97
2024-02-19T16:26:26.521Z,101054.66
2024-02-19T16:27:31.981Z,101053.81
2024-02-19T16:28:37.376Z,101052.13
2024-02-19T16:29:44.122Z,101053.81
2024-02-19T16:30:51.338Z,101053.81
2024-02-19T16:31:57.963Z,101052.97
2024-02-19T16:33:03.721Z,101047.50
2024-02-19T16:34:10.562Z,101050.59
2024-02-19T16:35:16.258Z,101050.34
2024-02-19T16:36:26.560Z,101046.78
2024-02-19T16:37:32.286Z,101046.78
2024-02-19T16:38:40.082Z,101042.13
2024-02-19T16:39:50.353Z,101043.78
2024-02-19T16:40:58.211Z,101050.13
2024-02-19T16:42:06.448Z,101047.03
2024-02-19T16:43:13.720Z,101046.44
2024-02-19T16:44:19.244Z,101050.72
2024-02-19T16:45:26.511Z,101051.81
2024-02-19T16:46:33.482Z,101041.09
2024-02-19T16:47:40.201Z,101045.50
2024-02-19T16:48:46.731Z,101046.56
2024-02-19T16:49:53.508Z,101043.00
2024-02-19T16:50:59.517Z,101043.00
2024-02-19T16:52:06.064Z,101039.69
2024-02-19T16:53:11.337Z,101038.59
2024-02-19T16:54:22.469Z,101038.59
2024-02-19T16:55:28.034Z,101029.00
2024-02-19T16:56:34.647Z,101039.31
2024-02-19T16:57:40.516Z,101032.78
2024-02-19T16:58:47.233Z,101025.88
2024-02-19T16:59:53.353Z,101036.81
2024-02-19T17:01:00.460Z,101039.56
2024-02-19T17:02:07.807Z,101033.00
2024-02-19T17:03:16.485Z,101037.41
2024-02-19T17:04:21.903Z,101036.13
2024-02-19T17:05:28.729Z,101035.03
2024-02-19T17:06:34.477Z,101028.50
2024-02-19T17:07:41.313Z,101027.41
2024-02-19T17:08:47.448Z,101034.56
2024-02-19T17:09:52.640Z,101027.19
2024-02-19T17:10:59.598Z,101038.13
2024-02-19T17:12:06.744Z,101032.41
2024-02-19T17:13:13.343Z,101032.41
2024-02-19T17:14:19.313Z,101038.13
2024-02-19T17:15:25.846Z,101030.16
2024-02-19T17:16:31.737Z,101030.16
2024-02-19T17:17:40.115Z,101032.06
2024-02-19T17:18:45.474Z,101034.22
2024-02-19T17:19:52.267Z,101032.56
2024-02-19T17:20:57.610Z,101035.53
2024-02-19T17:22:04.401Z,101042.88
2024-02-19T17:23:15.983Z,101033.00
2024-02-19T17:24:22.717Z,101033.84
2024-02-19T17:25:28.221Z,101025.88
2024-02-19T17:26:35.686Z,101029.94
2024-02-19T17:27:40.958Z,101032.91
2024-02-19T17:28:47.578Z,101022.22
2024-02-19T17:29:52.836Z,101025.19
2024-02-19T17:30:59.398Z,101033.63
2024-02-19T17:32:04.713Z,101025.66
2024-02-19T17:33:12.916Z,101026.47
2024-02-19T17:34:19.705Z,101021.03
2024-02-19T17:35:26.480Z,101031.94
2024-02-19T17:36:31.779Z,101019.16
2024-02-19T17:37:38.393Z,101017.00
2024-02-19T17:38:43.966Z,101017.81
2024-02-19T17:39:50.913Z,101021.38
2024-02-19T17:41:00.711Z,101019.47
2024-02-19T17:42:07.510Z,101026.03
2024-02-19T17:43:14.311Z,101023.03
2024-02-19T17:44:23.945Z,101017.56
2024-02-19T17:45:29.334Z,101015.09
2024-02-19T17:46:36.127Z,101015.91
2024-02-19T17:47:41.505Z,101017.00
2024-02-19T17:48:50.779Z,101014.25
2024-02-19T17:49:56.670Z,101007.72
2024-02-19T17:51:03.984Z,101004.97
2024-02-19T17:52:10.075Z,101012.94
2024-02-19T17:53:16.763Z,101014.38
2024-02-19T17:54:22.652Z,101006.19
2024-02-19T17:55:29.284Z,101013.31
2024-02-19T17:56:34.595Z,101009.50
2024-02-19T17:57:41.742Z,101008.66
2024-02-19T17:58:47.087Z,101008.66
2024-02-19T17:59:53.808Z,101006.19
2024-02-19T18:00:59.158Z,101001.78
2024-02-19T18:02:06.437Z,101006.41
2024-02-19T18:03:11.945Z,101000.34
2024-02-19T18:04:20.545Z,100999.53
2024-02-19T18:05:27.063Z,100998.31
2024-02-19T18:06:35.177Z,100997.50
2024-02-19T18:07:42.324Z,100996.66
2024-02-19T18:08:51.842Z,100993.94
2024-02-19T18:09:58.138Z,100989.53
2024-02-19T18:11:04.933Z,100989.78
2024-02-19T18:12:11.213Z,100993.59
2024-02-19T18:13:19.328Z,100990.88
2024-02-19T18:14:24.832Z,100981.22
2024-02-19T18:15:32.025Z,100980.41
2024-02-19T18:16:40.534Z,100980.41
2024-02-19T18:17:47.252Z,100977.09
2024-02-19T18:18:52.944Z,100979.00
2024-02-19T18:20:01.591Z,100976.72
2024-02-19T18:21:11.194Z,100979.72
2024-02-19T18:22:17.873Z,100978.88
2024-02-19T18:23:24.424Z,100982.28
2024-02-19T18:24:31.132Z,100971.00
2024-02-19T18:25:36.478Z,100970.66
2024-02-19T18:26:43.903Z,100977.41
2024-02-19T18:27:49.221Z,100965.91
2024-02-19T18:28:57.488Z,100968.88
2024-02-19T18:30:03.044Z,100962.56
2024-02-19T18:31:12.834Z,100967.44
2024-02-19T18:32:18.994Z,100961.16
2024-02-19T18:33:27.902Z,100955.69
2024-02-19T18:34:37.012Z,100952.13
2024-02-19T18:35:45.546Z,100950.22
2024-02-19T18:36:51.208Z,100953.78
2024-02-19T18:37:57.840Z,100949.41
2024-02-19T18:39:03.188Z,100949.41
2024-02-19T18:40:11.171Z,100940.13
2024-02-19T18:41:16.617Z,100942.88
2024-02-19T18:42:24.520Z,100939.66
2024-02-19T18:43:30.097Z,100945.72
2024-02-19T18:44:36.779Z,100946.28
2024-02-19T18:45:43.852Z,100943.34
2024-02-19T18:46:50.471Z,100945.00
2024-02-19T18:47:55.895Z,100939.53
2024-02-19T18:49:03.900Z,100940.63
2024-02-19T18:50:10.421Z,100938.09
2024-02-19T18:51:18.733Z,100936.19
2024-02-19T18:52:24.127Z,100931.59
2024-02-19T18:53:30.825Z,100931.59
2024-02-19T18:54:36.449Z,100933.25
2024-02-19T18:55:43.204Z,100929.69
2024-02-19T18:56:48.670Z,100926.72
2024-02-19T18:57:54.062Z,100925.63
2024-02-19T18:59:00.726Z,100924.81
2024-02-19T19:00:11.297Z,100922.53
2024-02-19T19:01:17.983Z,100918.16
2024-02-19T19:02:23.355Z,100924.69
2024-02-19T19:03:30.120Z,100925.25
2024-02-19T19:04:35.998Z,100918.97
2024-02-19T19:05:42.914Z,100918.97
2024-02-19T19:06:49.959Z,100920.66
2024-02-19T19:07:57.016Z,100920.41
2024-02-19T19:09:07.697Z,100916.84
2024-02-19T19:10:14.672Z,100912.22
2024-02-19T19:11:20.105Z,100916.59
2024-02-19T19:12:26.988Z,100911.97
2024-02-19T19:13:34.475Z,100916.34
2024-02-19T19:14:41.243Z,100915.28
2024-02-19T19:15:46.633Z,100909.00
2024-02-19T19:16:54.190Z,100910.91
2024-02-19T19:18:01.190Z,100913.88
2024-02-19T19:19:10.185Z,100916.03
2024-02-19T19:20:16.022Z,100914.59